IGO24A VEBS-VEPT
Flight info
| Callsign | IGO24A |
|---|---|
| Flight time | N/A |
| Altitude | 37000 |
| Route | ML14 DCT BS601 DCT GUTID DCT RRC/N0460F380 DCT GGC |
| Aircraft | A20N/M-SDE2E3FGHIRWXY/LB1 |
Departure
| Time | 2026-05-07 05:32 |
|---|---|
| Airport | Biju Patnaik International Airport (VEBS) |
Arrival
| Time | N/A |
|---|---|
| Airport | Jay Prakash Narayan Airport (VEPT) |
| Time | Latitude | Longitude | Altitude | Speed | Heading |
|---|---|---|---|---|---|
| 2026-05-07 05:10 | 20.25408 | 85.81543 | 124 ft | 0 kts | 54° |
| 2026-05-07 05:22 | 20.25407 | 85.81541 | 123 ft | 2 kts | 54° |
| 2026-05-07 05:22 | 20.25397 | 85.81527 | 118 ft | 2 kts | 54° |
| 2026-05-07 05:22 | 20.25387 | 85.81511 | 118 ft | 3 kts | 47° |
| 2026-05-07 05:22 | 20.25372 | 85.81500 | 120 ft | 3 kts | 10° |
| 2026-05-07 05:23 | 20.25354 | 85.81500 | 119 ft | 3 kts | 333° |
| 2026-05-07 05:23 | 20.25348 | 85.81504 | 121 ft | 0 kts | 323° |
| 2026-05-07 05:27 | 20.25354 | 85.81499 | 119 ft | 2 kts | 322° |
| 2026-05-07 05:27 | 20.25370 | 85.81478 | 121 ft | 5 kts | 303° |
| 2026-05-07 05:27 | 20.25389 | 85.81431 | 120 ft | 8 kts | 279° |
| 2026-05-07 05:27 | 20.25366 | 85.81371 | 121 ft | 10 kts | 236° |
| 2026-05-07 05:28 | 20.25320 | 85.81303 | 119 ft | 13 kts | 234° |
| 2026-05-07 05:28 | 20.25267 | 85.81226 | 121 ft | 9 kts | 234° |
| 2026-05-07 05:28 | 20.25242 | 85.81176 | 120 ft | 9 kts | 264° |
| 2026-05-07 05:28 | 20.25285 | 85.81126 | 120 ft | 11 kts | 324° |
| 2026-05-07 05:29 | 20.25372 | 85.81058 | 121 ft | 22 kts | 324° |
| 2026-05-07 05:29 | 20.25525 | 85.80940 | 117 ft | 30 kts | 323° |
| 2026-05-07 05:29 | 20.25703 | 85.80802 | 114 ft | 33 kts | 324° |
| 2026-05-07 05:29 | 20.25892 | 85.80656 | 114 ft | 31 kts | 324° |
| 2026-05-07 05:30 | 20.25999 | 85.80566 | 113 ft | 11 kts | 301° |
| 2026-05-07 05:30 | 20.26031 | 85.80510 | 112 ft | 8 kts | 329° |
| 2026-05-07 05:30 | 20.26054 | 85.80525 | 113 ft | 4 kts | 119° |
| 2026-05-07 05:30 | 20.26029 | 85.80549 | 113 ft | 0 kts | 143° |
| 2026-05-07 05:31 | 20.26029 | 85.80550 | 113 ft | 1 kts | 142° |
| 2026-05-07 05:31 | 20.25992 | 85.80579 | 113 ft | 25 kts | 142° |
| 2026-05-07 05:31 | 20.25653 | 85.80836 | 117 ft | 92 kts | 145° |
| 2026-05-07 05:31 | 20.24990 | 85.81355 | 121 ft | 142 kts | 146° |
| 2026-05-07 05:32 | 20.24093 | 85.82041 | 393 ft | 159 kts | 144° |
| 2026-05-07 05:32 | 20.23262 | 85.82743 | 1097 ft | 159 kts | 141° |
| 2026-05-07 05:32 | 20.22389 | 85.83536 | 1583 ft | 170 kts | 139° |
| 2026-05-07 05:32 | 20.21489 | 85.84410 | 2056 ft | 180 kts | 137° |
| 2026-05-07 05:33 | 20.20683 | 85.85467 | 2513 ft | 189 kts | 114° |
| 2026-05-07 05:33 | 20.20518 | 85.86856 | 3046 ft | 196 kts | 79° |
| 2026-05-07 05:33 | 20.21177 | 85.88109 | 3587 ft | 197 kts | 40° |
| 2026-05-07 05:33 | 20.22412 | 85.88666 | 4137 ft | 195 kts | 1° |
| 2026-05-07 05:34 | 20.23690 | 85.88322 | 4730 ft | 190 kts | 327° |
| 2026-05-07 05:34 | 20.24642 | 85.87384 | 5332 ft | 185 kts | 303° |
| 2026-05-07 05:34 | 20.25186 | 85.86165 | 5965 ft | 179 kts | 294° |
| 2026-05-07 05:34 | 20.25677 | 85.84967 | 6487 ft | 179 kts | 297° |
| 2026-05-07 05:35 | 20.26411 | 85.83805 | 6653 ft | 200 kts | 309° |
| 2026-05-07 05:35 | 20.27342 | 85.82594 | 6791 ft | 222 kts | 310° |
| 2026-05-07 05:35 | 20.28387 | 85.81280 | 6982 ft | 243 kts | 310° |
| 2026-05-07 05:35 | 20.29537 | 85.79838 | 7243 ft | 267 kts | 310° |
| 2026-05-07 05:36 | 20.30762 | 85.78288 | 7789 ft | 278 kts | 310° |
| 2026-05-07 05:36 | 20.31999 | 85.76710 | 8510 ft | 283 kts | 309° |
| 2026-05-07 05:36 | 20.33261 | 85.75092 | 9274 ft | 286 kts | 309° |
| 2026-05-07 05:36 | 20.34587 | 85.73490 | 9993 ft | 290 kts | 312° |
| 2026-05-07 05:37 | 20.35998 | 85.71924 | 10681 ft | 294 kts | 313° |
| 2026-05-07 05:37 | 20.37449 | 85.70368 | 11345 ft | 298 kts | 313° |
| 2026-05-07 05:37 | 20.38923 | 85.68800 | 12035 ft | 301 kts | 313° |
| 2026-05-07 05:37 | 20.40412 | 85.67206 | 12711 ft | 305 kts | 313° |
| 2026-05-07 05:38 | 20.41907 | 85.65592 | 13344 ft | 308 kts | 312° |
| 2026-05-07 05:38 | 20.43419 | 85.63949 | 13962 ft | 312 kts | 312° |
| 2026-05-07 05:38 | 20.44946 | 85.62287 | 14567 ft | 314 kts | 311° |
| 2026-05-07 05:38 | 20.46480 | 85.60611 | 15174 ft | 316 kts | 311° |
| 2026-05-07 05:39 | 20.48015 | 85.58930 | 15767 ft | 319 kts | 311° |
| 2026-05-07 05:39 | 20.49567 | 85.57227 | 16366 ft | 321 kts | 311° |
| 2026-05-07 05:39 | 20.51128 | 85.55512 | 16944 ft | 324 kts | 310° |
| 2026-05-07 05:39 | 20.52710 | 85.53776 | 17539 ft | 326 kts | 310° |
| 2026-05-07 05:40 | 20.54296 | 85.52040 | 18113 ft | 329 kts | 310° |
| 2026-05-07 05:40 | 20.55905 | 85.50281 | 18602 ft | 331 kts | 310° |
| 2026-05-07 05:40 | 20.57520 | 85.48517 | 19116 ft | 333 kts | 310° |
| 2026-05-07 05:40 | 20.59143 | 85.46741 | 19601 ft | 335 kts | 310° |
| 2026-05-07 05:41 | 20.60772 | 85.44956 | 20101 ft | 337 kts | 310° |
| 2026-05-07 05:41 | 20.62393 | 85.43180 | 20591 ft | 339 kts | 310° |
| 2026-05-07 05:41 | 20.64037 | 85.41374 | 21093 ft | 341 kts | 310° |
| 2026-05-07 05:41 | 20.65697 | 85.39550 | 21555 ft | 343 kts | 310° |
| 2026-05-07 05:42 | 20.67361 | 85.37717 | 22026 ft | 345 kts | 310° |
| 2026-05-07 05:42 | 20.69042 | 85.35865 | 22495 ft | 347 kts | 310° |
| 2026-05-07 05:42 | 20.70731 | 85.34008 | 22953 ft | 349 kts | 310° |
| 2026-05-07 05:42 | 20.72428 | 85.32146 | 23411 ft | 352 kts | 310° |
| 2026-05-07 05:43 | 20.74144 | 85.30266 | 23791 ft | 354 kts | 310° |
| 2026-05-07 05:43 | 20.75868 | 85.28374 | 24179 ft | 355 kts | 309° |
| 2026-05-07 05:43 | 20.77590 | 85.26477 | 24553 ft | 356 kts | 309° |
| 2026-05-07 05:43 | 20.79321 | 85.24571 | 24928 ft | 358 kts | 309° |
| 2026-05-07 05:44 | 20.81055 | 85.22662 | 25288 ft | 359 kts | 309° |
| 2026-05-07 05:44 | 20.82799 | 85.20742 | 25671 ft | 360 kts | 309° |
| 2026-05-07 05:44 | 20.84548 | 85.18818 | 26042 ft | 361 kts | 309° |
| 2026-05-07 05:44 | 20.86296 | 85.16894 | 26413 ft | 363 kts | 309° |
| 2026-05-07 05:45 | 20.88054 | 85.14950 | 26772 ft | 364 kts | 309° |
| 2026-05-07 05:45 | 20.89801 | 85.13016 | 27122 ft | 365 kts | 308° |
| 2026-05-07 05:45 | 20.91563 | 85.11070 | 27472 ft | 367 kts | 308° |
| 2026-05-07 05:45 | 20.93321 | 85.09131 | 27807 ft | 368 kts | 308° |
| 2026-05-07 05:46 | 20.95125 | 85.07142 | 28165 ft | 369 kts | 308° |
| 2026-05-07 05:46 | 20.96883 | 85.05202 | 28520 ft | 371 kts | 308° |
| 2026-05-07 05:46 | 20.98689 | 85.03205 | 28852 ft | 372 kts | 308° |
| 2026-05-07 05:46 | 21.00516 | 85.01183 | 29191 ft | 374 kts | 308° |
| 2026-05-07 05:47 | 21.02319 | 84.99189 | 29623 ft | 372 kts | 307° |
| 2026-05-07 05:47 | 21.04201 | 84.97325 | 30040 ft | 377 kts | 316° |
| 2026-05-07 05:47 | 21.06461 | 84.95794 | 30385 ft | 385 kts | 326° |
| 2026-05-07 05:47 | 21.08959 | 84.94753 | 30688 ft | 395 kts | 337° |
| 2026-05-07 05:48 | 21.11735 | 84.94208 | 30867 ft | 407 kts | 348° |
| 2026-05-07 05:48 | 21.14572 | 84.94274 | 30899 ft | 419 kts | 1° |
| 2026-05-07 05:48 | 21.17465 | 84.94778 | 30905 ft | 421 kts | 2° |
| 2026-05-07 05:49 | 21.23244 | 84.95812 | 30908 ft | 422 kts | 2° |
| 2026-05-07 05:49 | 21.29039 | 84.96830 | 30911 ft | 422 kts | 1° |
| 2026-05-07 05:50 | 21.34838 | 84.97838 | 30913 ft | 422 kts | 1° |
| 2026-05-07 05:50 | 21.39713 | 84.98694 | 30918 ft | 423 kts | 1° |
| 2026-05-07 05:51 | 21.45486 | 84.99707 | 30932 ft | 423 kts | 1° |
| 2026-05-07 05:51 | 21.51313 | 85.00723 | 30927 ft | 430 kts | 1° |
| 2026-05-07 05:52 | 21.57365 | 85.01770 | 30931 ft | 449 kts | 1° |
| 2026-05-07 05:52 | 21.63663 | 85.02876 | 30935 ft | 468 kts | 2° |
| 2026-05-07 05:53 | 21.70206 | 85.04031 | 30942 ft | 484 kts | 2° |
| 2026-05-07 05:53 | 21.76953 | 85.05228 | 30946 ft | 496 kts | 2° |
| 2026-05-07 05:54 | 21.83779 | 85.06444 | 30949 ft | 498 kts | 2° |
| 2026-05-07 05:54 | 21.90618 | 85.07653 | 30941 ft | 498 kts | 2° |
| 2026-05-07 05:55 | 21.97440 | 85.08853 | 30945 ft | 498 kts | 2° |
| 2026-05-07 05:55 | 22.04281 | 85.10072 | 30947 ft | 498 kts | 2° |
| 2026-05-07 05:56 | 22.11114 | 85.11284 | 30945 ft | 498 kts | 2° |
| 2026-05-07 05:56 | 22.17965 | 85.12492 | 30947 ft | 498 kts | 2° |
| 2026-05-07 05:57 | 22.24786 | 85.13698 | 30949 ft | 498 kts | 1° |
| 2026-05-07 05:57 | 22.31640 | 85.14921 | 30949 ft | 498 kts | 2° |
| 2026-05-07 05:58 | 22.38469 | 85.16133 | 30955 ft | 498 kts | 1° |
| 2026-05-07 05:58 | 22.45325 | 85.17351 | 30958 ft | 499 kts | 1° |
| 2026-05-07 05:59 | 22.52145 | 85.18574 | 30962 ft | 499 kts | 1° |
| 2026-05-07 05:59 | 22.59004 | 85.19797 | 30969 ft | 499 kts | 1° |
| 2026-05-07 06:00 | 22.65834 | 85.21013 | 30976 ft | 500 kts | 1° |
| 2026-05-07 06:00 | 22.72720 | 85.22242 | 30978 ft | 499 kts | 1° |
| 2026-05-07 06:01 | 22.79575 | 85.23466 | 30984 ft | 500 kts | 1° |
| 2026-05-07 06:01 | 22.86441 | 85.24683 | 30991 ft | 500 kts | 1° |
| 2026-05-07 06:02 | 22.93307 | 85.25911 | 30997 ft | 500 kts | 2° |
| 2026-05-07 06:02 | 23.00170 | 85.27151 | 31009 ft | 500 kts | 2° |
| 2026-05-07 06:03 | 23.07046 | 85.28394 | 31025 ft | 500 kts | 2° |
| 2026-05-07 06:03 | 23.13857 | 85.29621 | 31029 ft | 500 kts | 2° |
| 2026-05-07 06:04 | 23.20757 | 85.30860 | 31038 ft | 500 kts | 2° |
| 2026-05-07 06:04 | 23.27575 | 85.32054 | 31046 ft | 496 kts | 358° |
| 2026-05-07 06:04 | 23.30987 | 85.32192 | 31044 ft | 485 kts | 349° |
| 2026-05-07 06:05 | 23.34297 | 85.31768 | 31043 ft | 474 kts | 340° |
| 2026-05-07 06:05 | 23.40678 | 85.30091 | 31047 ft | 471 kts | 338° |
| 2026-05-07 06:06 | 23.47045 | 85.28387 | 31041 ft | 471 kts | 338° |
| 2026-05-07 06:06 | 23.53417 | 85.26697 | 31031 ft | 471 kts | 338° |
| 2026-05-07 06:07 | 23.59790 | 85.25014 | 31017 ft | 471 kts | 338° |
| 2026-05-07 06:07 | 23.66155 | 85.23320 | 31003 ft | 470 kts | 338° |
| 2026-05-07 06:08 | 23.72516 | 85.21621 | 30999 ft | 470 kts | 338° |
| 2026-05-07 06:08 | 23.78818 | 85.19935 | 30996 ft | 470 kts | 338° |
| 2026-05-07 06:09 | 23.85180 | 85.18241 | 30989 ft | 470 kts | 338° |
| 2026-05-07 06:09 | 23.91537 | 85.16550 | 30979 ft | 470 kts | 338° |
| 2026-05-07 06:10 | 23.97902 | 85.14850 | 30977 ft | 469 kts | 338° |
| 2026-05-07 06:10 | 24.04243 | 85.13156 | 30979 ft | 469 kts | 338° |
| 2026-05-07 06:11 | 24.10575 | 85.11453 | 30974 ft | 468 kts | 338° |
| 2026-05-07 06:11 | 24.16863 | 85.09763 | 30971 ft | 468 kts | 338° |
| 2026-05-07 06:12 | 24.23187 | 85.08073 | 30968 ft | 467 kts | 338° |
| 2026-05-07 06:12 | 24.29501 | 85.06379 | 30960 ft | 467 kts | 338° |
| 2026-05-07 06:13 | 24.35809 | 85.04683 | 30952 ft | 466 kts | 338° |
| 2026-05-07 06:13 | 24.42106 | 85.02985 | 30941 ft | 466 kts | 338° |
| 2026-05-07 06:14 | 24.48404 | 85.01281 | 30928 ft | 465 kts | 338° |
| 2026-05-07 06:14 | 24.54685 | 84.99591 | 30916 ft | 465 kts | 339° |
| 2026-05-07 06:15 | 24.60973 | 84.97906 | 30912 ft | 465 kts | 339° |
| 2026-05-07 06:15 | 24.67204 | 84.96218 | 30914 ft | 464 kts | 338° |
| 2026-05-07 06:16 | 24.73639 | 84.94926 | 30905 ft | 478 kts | 353° |
| 2026-05-07 06:16 | 24.76982 | 84.95356 | 30903 ft | 493 kts | 7° |
| 2026-05-07 06:16 | 24.80237 | 84.96477 | 30897 ft | 497 kts | 12° |
| 2026-05-07 06:17 | 24.86800 | 84.98898 | 30894 ft | 498 kts | 12° |
| 2026-05-07 06:17 | 24.93365 | 85.01327 | 30898 ft | 498 kts | 12° |
| 2026-05-07 06:18 | 24.99934 | 85.03739 | 30899 ft | 498 kts | 12° |
| 2026-05-07 06:18 | 25.06509 | 85.06147 | 30903 ft | 497 kts | 12° |
| 2026-05-07 06:19 | 25.13077 | 85.08553 | 30905 ft | 497 kts | 12° |
| 2026-05-07 06:19 | 25.19632 | 85.10960 | 30912 ft | 497 kts | 12° |
| 2026-05-07 06:20 | 25.26178 | 85.13383 | 30913 ft | 496 kts | 12° |
| 2026-05-07 06:20 | 25.32730 | 85.15807 | 30921 ft | 496 kts | 12° |
| 2026-05-07 06:21 | 25.39263 | 85.18215 | 30927 ft | 495 kts | 12° |
| 2026-05-07 06:21 | 25.45800 | 85.20626 | 30935 ft | 495 kts | 13° |
| 2026-05-07 06:22 | 25.52321 | 85.23039 | 30941 ft | 494 kts | 13° |
| 2026-05-07 06:22 | 25.62121 | 85.26217 | 30915 ft | 477 kts | 355° |
| 2026-05-07 06:23 | 25.65301 | 85.25786 | 30916 ft | 460 kts | 335° |
| 2026-05-07 06:23 | 25.68102 | 85.24175 | 30915 ft | 442 kts | 315° |
| 2026-05-07 06:23 | 25.70081 | 85.21666 | 30915 ft | 429 kts | 295° |
| 2026-05-07 06:23 | 25.71036 | 85.18636 | 30918 ft | 420 kts | 275° |
| 2026-05-07 06:24 | 25.70880 | 85.15442 | 30919 ft | 418 kts | 255° |
| 2026-05-07 06:24 | 25.69631 | 85.12543 | 30920 ft | 421 kts | 237° |
| 2026-05-07 06:24 | 25.66110 | 85.07280 | 30919 ft | 424 kts | 236° |
| 2026-05-07 06:25 | 25.61730 | 85.02953 | 30920 ft | 438 kts | 206° |
| 2026-05-07 06:25 | 25.58710 | 85.02287 | 30918 ft | 454 kts | 185° |
| 2026-05-07 06:25 | 25.55552 | 85.02870 | 30916 ft | 471 kts | 165° |
| 2026-05-07 06:26 | 25.52652 | 85.04682 | 30920 ft | 489 kts | 145° |
| 2026-05-07 06:26 | 25.50411 | 85.07494 | 30916 ft | 503 kts | 125° |
| 2026-05-07 06:26 | 25.49036 | 85.11136 | 30916 ft | 514 kts | 104° |
| 2026-05-07 06:26 | 25.48772 | 85.15038 | 30921 ft | 522 kts | 84° |
| 2026-05-07 06:27 | 25.49625 | 85.18912 | 30910 ft | 517 kts | 65° |
| 2026-05-07 06:27 | 25.51341 | 85.22367 | 30269 ft | 511 kts | 55° |
| 2026-05-07 06:27 | 25.53136 | 85.25781 | 29403 ft | 514 kts | 60° |
| 2026-05-07 06:27 | 25.54790 | 85.29295 | 28552 ft | 513 kts | 61° |
| 2026-05-07 06:28 | 25.55749 | 85.31349 | 28056 ft | 513 kts | 61° |